.
WxDataArchive / Data Records for 2015-12-15
2015-12-14 December 2015 2015-12-16

Data Records for Tuesday, 15 December 2015

Time	Temp	Chill	HIndex	Humid	Dewpt	 Wind 	HiWind	WindDir	Rain 	Barom
-----	----	-----	------	-----	-----	------	------	-------	-----	-----
00:00	44.6	44.6	44.6	83	39.8	1	5	248	0.00	29.550 
00:05	44.5	44.5	44.5	83	39.7	1	5	248	0.00	29.550 
00:10	44.6	44.6	44.6	83	39.8	0	3	248	0.00	29.550 
00:15	44.5	44.5	44.5	83	39.7	1	4	248	0.00	29.558 
00:20	44.5	44.5	44.5	82	39.4	2	5	248	0.00	29.558 
00:25	44.3	44.3	44.3	81	38.8	2	5	248	0.00	29.558 
00:30	44.3	44.3	44.3	80	38.5	1	5	248	0.00	29.569 
00:35	44.2	44.2	44.2	79	38.1	1	3	248	0.00	29.569 
00:40	44.1	44.1	44.1	78	37.7	2	4	248	0.00	29.569 
00:45	43.9	43.9	43.9	77	37.2	2	5	292	0.00	29.571 
00:50	43.8	43.8	43.8	77	37.1	1	3	292	0.00	29.571 
00:55	43.6	43.6	43.6	78	37.2	1	4	270	0.00	29.571 
01:00	43.5	43.5	43.5	77	36.8	1	3	248	0.00	29.575 
01:05	43.5	43.5	43.5	78	37.1	1	6	248	0.00	29.575 
01:10	43.5	43.5	43.5	78	37.1	1	4	248	0.00	29.575 
01:15	43.2	43.2	43.2	78	36.8	3	7	248	0.00	29.584 
01:20	42.9	42.9	42.9	78	36.5	2	5	270	0.00	29.584 
01:25	42.8	42.8	42.8	78	36.4	2	6	270	0.00	29.584 
01:30	42.5	42.5	42.5	78	36.1	2	4	248	0.00	29.585 
01:35	42.3	42.3	42.3	79	36.3	1	4	248	0.00	29.585 
01:40	42.3	42.3	42.3	80	36.6	0	2	248	0.00	29.585 
01:45	42.3	42.3	42.3	81	36.9	1	9	248	0.00	29.596 
01:50	42.2	42.2	42.2	81	36.8	1	5	225	0.00	29.596 
01:55	42.2	42.2	42.2	81	36.8	1	3	248	0.00	29.596 
02:00	42.2	42.2	42.2	82	37.1	1	3	248	0.00	29.607 
02:05	42.2	42.2	42.2	81	36.8	2	6	270	0.00	29.607 
02:10	42.2	42.2	42.2	82	37.1	1	4	248	0.00	29.607 
02:15	42.2	42.2	42.2	82	37.1	2	6	248	0.00	29.617 
02:20	42.1	42.1	42.1	82	37.0	2	4	248	0.00	29.617 
02:25	41.9	41.9	41.9	82	36.8	1	4	248	0.00	29.617 
02:30	41.9	41.9	41.9	83	37.1	1	3	248	0.00	29.623 
02:35	41.9	41.9	41.9	84	37.4	1	4	248	0.00	29.623 
02:40	41.9	41.9	41.9	84	37.4	2	7	292	0.00	29.623 
02:45	41.9	41.9	41.9	84	37.4	2	5	270	0.00	29.633 
02:50	41.9	41.9	41.9	84	37.4	1	5	270	0.00	29.633 
02:55	41.9	41.9	41.9	85	37.7	1	4	270	0.00	29.633 
03:00	41.8	41.8	41.8	85	37.6	2	4	270	0.00	29.638 
03:05	41.6	41.6	41.6	87	38.0	1	2	270	0.00	29.638 
03:10	41.5	41.5	41.5	87	37.9	0	3	270	0.00	29.638 
03:15	41.3	41.3	41.3	88	38.0	1	3	270	0.00	29.648 
03:20	41.3	41.3	41.3	88	38.0	1	3	270	0.00	29.648 
03:25	41.2	41.2	41.2	89	38.2	0	2	270	0.00	29.648 
03:30	41.1	41.1	41.1	89	38.1	1	3	270	0.00	29.651 
03:35	41.1	41.1	41.1	89	38.1	1	4	270	0.00	29.651 
03:40	41.1	41.1	41.1	88	37.8	1	3	270	0.00	29.651 
03:45	41.1	41.1	41.1	88	37.8	1	2	270	0.00	29.661 
03:50	41.2	41.2	41.2	87	37.6	1	3	270	0.00	29.661 
03:55	41.3	41.3	41.3	86	37.4	1	3	270	0.00	29.661 
04:00	41.3	41.3	41.3	86	37.4	1	3	270	0.00	29.666 
04:05	41.3	41.3	41.3	85	37.1	1	3	270	0.00	29.666 
04:10	41.3	41.3	41.3	85	37.1	1	4	270	0.00	29.666 
04:15	41.3	41.3	41.3	85	37.1	0	2	270	0.00	29.671 
04:20	41.2	41.2	41.2	86	37.3	1	4	270	0.00	29.671 
04:25	41.2	41.2	41.2	86	37.3	2	4	270	0.00	29.671 
04:30	41.1	41.1	41.1	86	37.2	1	3	270	0.00	29.673 
04:35	40.9	40.9	40.9	87	37.3	1	3	270	0.00	29.673 
04:40	40.9	40.9	40.9	87	37.3	1	5	292	0.00	29.673 
04:45	40.9	40.9	40.9	87	37.3	1	4	292	0.00	29.679 
04:50	40.9	40.9	40.9	87	37.3	0	2	248	0.00	29.679 
04:55	40.9	40.9	40.9	87	37.3	0	2	248	0.00	29.679 
05:00	41.1	41.1	41.1	87	37.5	1	3	248	0.00	29.687 
05:05	41.1	41.1	41.1	87	37.5	1	3	248	0.00	29.687 
05:10	40.9	40.9	40.9	87	37.3	1	3	248	0.00	29.687 
05:15	40.9	40.9	40.9	88	37.6	1	3	248	0.00	29.690 
05:20	40.9	40.9	40.9	88	37.6	1	3	248	0.00	29.690 
05:25	40.9	40.9	40.9	88	37.6	0	2	248	0.00	29.690 
05:30	40.9	40.9	40.9	88	37.6	1	3	248	0.00	29.699 
05:35	40.9	40.9	40.9	88	37.6	0	2	248	0.00	29.699 
05:40	40.9	40.9	40.9	88	37.6	1	2	248	0.00	29.699 
05:45	40.8	40.8	40.8	89	37.8	0	2	248	0.00	29.704 
05:50	40.8	40.8	40.8	89	37.8	0	2	248	0.00	29.704 
05:55	40.8	40.8	40.8	89	37.8	0	3	248	0.00	29.704 
06:00	40.9	40.9	40.9	89	37.9	0	1	248	0.00	29.716 
06:05	41.1	41.1	41.1	90	38.4	0	2	248	0.00	29.716 
06:10	41.1	41.1	41.1	90	38.4	0	2	248	0.00	29.716 
06:15	41.1	41.1	41.1	90	38.4	0	2	248	0.00	29.721 
06:20	41.1	41.1	41.1	91	38.7	0	2	248	0.00	29.721 
06:25	41.1	41.1	41.1	91	38.7	0	2	248	0.00	29.721 
06:30	41.1	41.1	41.1	91	38.7	0	3	248	0.00	29.730 
06:35	41.1	41.1	41.1	91	38.7	0	1	248	0.01	29.730 
06:40	41.1	41.1	41.1	92	39.0	1	3	248	0.00	29.730 
06:45	41.1	41.1	41.1	92	39.0	0	3	248	0.00	29.734 
06:50	40.9	40.9	40.9	92	38.8	1	3	248	0.00	29.734 
06:55	40.9	40.9	40.9	92	38.8	0	2	248	0.00	29.734 
07:00	40.9	40.9	40.9	92	38.8	0	2	248	0.00	29.740 
07:05	40.9	40.9	40.9	92	38.8	1	3	248	0.00	29.740 
07:10	40.9	40.9	40.9	92	38.8	0	3	248	0.00	29.740 
07:15	40.8	40.8	40.8	92	38.7	0	2	248	0.00	29.746 
07:20	40.8	40.8	40.8	92	38.7	0	3	248	0.00	29.746 
07:25	40.8	40.8	40.8	92	38.7	0	3	248	0.00	29.746 
07:30	40.8	40.8	40.8	92	38.7	0	2	248	0.00	29.752 
07:35	40.8	40.8	40.8	92	38.7	0	1	248	0.00	29.752 
07:40	40.8	40.8	40.8	92	38.7	0	1	248	0.00	29.752 
07:45	40.8	40.8	40.8	92	38.7	0	1	248	0.00	29.765 
07:50	40.8	40.8	40.8	92	38.7	0	1	248	0.00	29.765 
07:55	40.9	40.9	40.9	92	38.8	0	2	248	0.00	29.765 
08:00	40.9	40.9	40.9	92	38.8	0	2	248	0.00	29.775 
08:05	40.9	40.9	40.9	92	38.8	0	3	248	0.00	29.775 
08:10	41.1	41.1	41.1	92	39.0	0	2	248	0.00	29.775 
08:15	41.1	41.1	41.1	92	39.0	0	3	248	0.00	29.780 
08:20	41.2	41.2	41.2	92	39.1	1	4	248	0.00	29.780 
08:25	41.2	41.2	41.2	92	39.1	0	2	248	0.00	29.780 
08:30	41.3	41.3	41.3	91	38.9	0	2	248	0.00	29.791 
08:35	41.3	41.3	41.3	91	38.9	1	3	248	0.00	29.791 
08:40	41.3	41.3	41.3	91	38.9	0	2	248	0.00	29.791 
08:45	41.3	41.3	41.3	91	38.9	1	3	248	0.00	29.800 
08:50	41.3	41.3	41.3	91	38.9	0	3	270	0.00	29.800 
08:55	41.3	41.3	41.3	91	38.9	1	3	270	0.00	29.800 
09:00	41.3	41.3	41.3	91	38.9	1	2	270	0.00	29.811 
09:05	41.5	41.5	41.5	91	39.1	0	2	270	0.00	29.811 
09:10	41.5	41.5	41.5	91	39.1	0	2	270	0.00	29.811 
09:15	41.5	41.5	41.5	91	39.1	1	3	270	0.00	29.819 
09:20	41.6	41.6	41.6	91	39.2	1	3	270	0.00	29.819 
09:25	41.6	41.6	41.6	91	39.2	1	3	270	0.00	29.819 
09:30	41.6	41.6	41.6	91	39.2	0	3	270	0.00	29.828 
09:35	41.6	41.6	41.6	92	39.5	0	2	270	0.00	29.828 
09:40	41.6	41.6	41.6	92	39.5	0	1	270	0.00	29.828 
09:45	41.6	41.6	41.6	92	39.5	1	3	270	0.00	29.840 
09:50	41.6	41.6	41.6	92	39.5	1	3	270	0.00	29.840 
09:55	41.5	41.5	41.5	92	39.4	0	3	270	0.00	29.840 
10:00	41.6	41.6	41.6	92	39.5	0	2	270	0.00	29.843 
10:05	41.6	41.6	41.6	92	39.5	0	2	270	0.00	29.843 
10:10	41.6	41.6	41.6	92	39.5	0	2	270	0.00	29.843 
10:15	41.8	41.8	41.8	92	39.6	0	2	270	0.00	29.858 
10:20	41.8	41.8	41.8	92	39.6	0	2	270	0.00	29.858 
10:25	41.9	41.9	41.9	92	39.7	1	4	270	0.00	29.858 
10:30	41.9	41.9	41.9	92	39.7	0	2	270	0.00	29.864 
10:35	42.1	42.1	42.1	92	39.9	0	2	270	0.00	29.864 
10:40	42.1	42.1	42.1	92	39.9	1	3	270	0.00	29.864 
10:45	42.1	42.1	42.1	92	39.9	0	2	270	0.00	29.875 
10:50	42.2	42.2	42.2	92	40.0	1	4	270	0.00	29.875 
10:55	42.2	42.2	42.2	92	40.0	1	4	248	0.00	29.875 
11:00	42.3	42.3	42.3	93	40.4	0	3	248	0.00	29.875 
11:05	42.5	42.5	42.5	93	40.6	0	2	248	0.00	29.875 
11:10	42.5	42.5	42.5	93	40.6	1	3	248	0.00	29.875 
11:15	42.5	42.5	42.5	93	40.6	0	2	248	0.01	29.877 
11:20	42.6	42.6	42.6	93	40.7	1	3	248	0.00	29.877 
11:25	42.6	42.6	42.6	93	40.7	1	2	248	0.00	29.877 
11:30	42.6	42.6	42.6	93	40.7	1	4	248	0.00	29.875 
11:35	42.6	42.6	42.6	93	40.7	1	2	248	0.00	29.875 
11:40	42.6	42.6	42.6	93	40.7	1	2	248	0.00	29.875 
11:45	42.8	42.8	42.8	93	40.9	0	2	248	0.00	29.874 
11:50	42.8	42.8	42.8	93	40.9	0	2	248	0.00	29.874 
11:55	42.8	42.8	42.8	93	40.9	0	3	248	0.00	29.874 
12:00	42.8	42.8	42.8	93	40.9	0	1	248	0.00	29.874 
12:05	42.9	42.9	42.9	93	41.0	0	2	248	0.00	29.874 
12:10	42.9	42.9	42.9	93	41.0	0	1	248	0.00	29.874 
12:15	42.9	42.9	42.9	93	41.0	0	2	248	0.00	29.875 
12:20	43.1	43.1	43.1	93	41.2	0	1	248	0.00	29.875 
12:25	43.2	43.2	43.2	93	41.3	0	2	248	0.00	29.875 
12:30	43.3	43.3	43.3	93	41.4	0	1	248	0.00	29.874 
12:35	43.6	43.6	43.6	93	41.7	0	1	248	0.00	29.874 
12:40	43.6	43.6	43.6	92	41.4	0	2	248	0.00	29.874 
12:45	43.6	43.6	43.6	92	41.4	1	3	248	0.00	29.873 
12:50	43.3	43.3	43.3	92	41.1	2	4	248	0.00	29.873 
12:55	43.2	43.2	43.2	91	40.8	1	4	248	0.00	29.873 
13:00	43.2	43.2	43.2	91	40.8	1	2	292	0.00	29.875 
13:05	43.2	43.2	43.2	90	40.5	1	3	292	0.00	29.875 
13:10	43.3	43.3	43.3	89	40.3	0	2	292	0.00	29.875 
13:15	43.5	43.5	43.5	88	40.2	1	5	292	0.00	29.873 
13:20	43.5	43.5	43.5	86	39.6	2	4	248	0.00	29.873 
13:25	43.6	43.6	43.6	85	39.4	1	3	292	0.00	29.873 
13:30	43.8	43.8	43.8	84	39.3	1	3	292	0.00	29.868 
13:35	43.9	43.9	43.9	84	39.4	1	3	292	0.00	29.868 
13:40	44.1	44.1	44.1	83	39.3	0	4	292	0.00	29.868 
13:45	44.1	44.1	44.1	82	39.0	0	3	315	0.00	29.862 
13:50	44.2	44.2	44.2	81	38.7	1	3	0	0.00	29.862 
13:55	44.3	44.3	44.3	81	38.8	0	1	0	0.00	29.862 
14:00	44.5	44.5	44.5	81	39.0	0	2	0	0.00	29.860 
14:05	44.5	44.5	44.5	79	38.4	1	3	0	0.00	29.860 
14:10	44.3	44.3	44.3	77	37.6	0	4	0	0.00	29.860 
14:15	44.2	44.2	44.2	77	37.5	0	2	338	0.00	29.861 
14:20	44.3	44.3	44.3	77	37.6	1	3	338	0.00	29.861 
14:25	44.2	44.2	44.2	76	37.1	1	4	292	0.00	29.861 
14:30	44.3	44.3	44.3	76	37.2	0	1	292	0.00	29.865 
14:35	44.3	44.3	44.3	77	37.6	0	2	292	0.00	29.865 
14:40	44.2	44.2	44.2	78	37.8	1	3	292	0.00	29.865 
14:45	44.1	44.1	44.1	78	37.7	0	4	292	0.00	29.876 
14:50	43.9	43.9	43.9	79	37.8	0	2	292	0.00	29.876 
14:55	43.9	43.9	43.9	79	37.8	0	1	292	0.00	29.876 
15:00	43.8	43.8	43.8	79	37.7	0	2	292	0.00	29.876 
15:05	43.8	43.8	43.8	79	37.7	0	1	292	0.00	29.876 
15:10	43.8	43.8	43.8	79	37.7	0	2	292	0.00	29.876 
15:15	43.9	43.9	43.9	79	37.8	0	3	292	0.00	29.886 
15:20	43.9	43.9	43.9	78	37.5	0	1	292	0.00	29.886 
15:25	43.9	43.9	43.9	79	37.8	0	3	292	0.00	29.886 
15:30	43.9	43.9	43.9	78	37.5	0	1	292	0.00	29.892 
15:35	43.9	43.9	43.9	78	37.5	0	2	292	0.00	29.892 
15:40	43.9	43.9	43.9	78	37.5	0	2	292	0.00	29.892 
15:45	43.8	43.8	43.8	77	37.1	0	1	292	0.00	29.894 
15:50	43.8	43.8	43.8	77	37.1	0	2	292	0.00	29.894 
15:55	43.8	43.8	43.8	77	37.1	0	1	292	0.00	29.894 
16:00	43.8	43.8	43.8	77	37.1	0	1	292	0.00	29.898 
16:05	43.8	43.8	43.8	78	37.4	0	1	292	0.00	29.898 
16:10	43.8	43.8	43.8	77	37.1	0	1	292	0.00	29.898 
16:15	43.8	43.8	43.8	78	37.4	0	1	292	0.00	29.905 
16:20	43.6	43.6	43.6	78	37.2	0	1	292	0.00	29.905 
16:25	43.6	43.6	43.6	78	37.2	0	1	292	0.00	29.905 
16:30	43.5	43.5	43.5	78	37.1	0	1	292	0.00	29.909 
16:35	43.3	43.3	43.3	78	36.9	0	2	292	0.00	29.909 
16:40	43.3	43.3	43.3	78	36.9	0	1	292	0.00	29.909 
16:45	43.3	43.3	43.3	78	36.9	0	1	292	0.00	29.913 
16:50	43.2	43.2	43.2	78	36.8	0	1	292	0.00	29.913 
16:55	43.2	43.2	43.2	78	36.8	0	1	292	0.00	29.913 
17:00	43.2	43.2	43.2	78	36.8	0	1	292	0.00	29.922 
17:05	43.2	43.2	43.2	78	36.8	0	1	292	0.00	29.922 
17:10	43.1	43.1	43.1	78	36.7	0	1	292	0.00	29.922 
17:15	43.1	43.1	43.1	78	36.7	0	0	---	0.00	29.923 
17:20	43.1	43.1	43.1	78	36.7	0	1	292	0.00	29.923 
17:25	43.1	43.1	43.1	78	36.7	0	1	292	0.00	29.923 
17:30	43.1	43.1	43.1	78	36.7	0	1	292	0.00	29.920 
17:35	42.9	42.9	42.9	78	36.5	0	1	292	0.00	29.920 
17:40	42.9	42.9	42.9	78	36.5	0	1	292	0.00	29.920 
17:45	42.9	42.9	42.9	77	36.2	0	2	292	0.00	29.927 
17:50	42.9	42.9	42.9	78	36.5	0	0	---	0.00	29.927 
17:55	42.9	42.9	42.9	78	36.5	0	1	292	0.00	29.927 
18:00	42.8	42.8	42.8	79	36.7	0	1	292	0.00	29.926 
18:05	42.6	42.6	42.6	79	36.6	0	1	292	0.00	29.926 
18:10	42.6	42.6	42.6	79	36.6	0	0	---	0.00	29.926 
18:15	42.6	42.6	42.6	80	36.9	0	0	---	0.00	29.929 
18:20	42.5	42.5	42.5	80	36.8	0	1	292	0.00	29.929 
18:25	42.5	42.5	42.5	80	36.8	0	0	---	0.00	29.929 
18:30	42.5	42.5	42.5	80	36.8	0	1	292	0.00	29.939 
18:35	42.3	42.3	42.3	80	36.6	0	1	292	0.00	29.939 
18:40	42.3	42.3	42.3	80	36.6	0	0	---	0.00	29.939 
18:45	42.3	42.3	42.3	81	36.9	0	0	---	0.00	29.943 
18:50	42.3	42.3	42.3	80	36.6	0	1	292	0.00	29.943 
18:55	42.3	42.3	42.3	80	36.6	0	0	---	0.00	29.943 
19:00	42.3	42.3	42.3	81	36.9	0	0	---	0.00	29.951 
19:05	42.3	42.3	42.3	81	36.9	0	0	---	0.00	29.951 
19:10	42.3	42.3	42.3	81	36.9	0	0	---	0.00	29.951 
19:15	42.3	42.3	42.3	81	36.9	0	0	---	0.00	29.944 
19:20	42.3	42.3	42.3	81	36.9	0	1	292	0.00	29.944 
19:25	42.3	42.3	42.3	81	36.9	0	0	---	0.00	29.944 
19:30	42.3	42.3	42.3	81	36.9	0	0	---	0.00	29.943 
19:35	42.3	42.3	42.3	81	36.9	0	0	---	0.00	29.943 
19:40	42.3	42.3	42.3	81	36.9	0	0	---	0.00	29.943 
19:45	42.3	42.3	42.3	81	36.9	0	1	292	0.00	29.942 
19:50	42.3	42.3	42.3	81	36.9	0	0	---	0.00	29.942 
19:55	42.3	42.3	42.3	82	37.2	0	1	292	0.00	29.942 
20:00	42.3	42.3	42.3	82	37.2	0	0	---	0.00	29.946 
20:05	42.3	42.3	42.3	82	37.2	0	1	292	0.00	29.946 
20:10	42.3	42.3	42.3	82	37.2	0	1	292	0.00	29.946 
20:15	42.3	42.3	42.3	81	36.9	0	1	292	0.00	29.946 
20:20	42.3	42.3	42.3	81	36.9	0	1	292	0.00	29.946 
20:25	42.3	42.3	42.3	82	37.2	0	1	292	0.00	29.946 
20:30	42.3	42.3	42.3	81	36.9	1	3	292	0.00	29.943 
20:35	42.3	42.3	42.3	82	37.2	0	1	292	0.00	29.943 
20:40	42.3	42.3	42.3	82	37.2	0	1	292	0.00	29.943 
20:45	42.3	42.3	42.3	82	37.2	0	1	292	0.00	29.947 
20:50	42.2	42.2	42.2	83	37.4	0	1	292	0.00	29.947 
20:55	42.2	42.2	42.2	83	37.4	0	0	---	0.00	29.947 
21:00	42.2	42.2	42.2	83	37.4	0	1	292	0.00	29.953 
21:05	42.2	42.2	42.2	83	37.4	0	0	---	0.00	29.953 
21:10	42.2	42.2	42.2	84	37.7	0	0	---	0.00	29.953 
21:15	42.2	42.2	42.2	84	37.7	0	1	292	0.00	29.952 
21:20	42.2	42.2	42.2	84	37.7	0	2	292	0.00	29.952 
21:25	42.2	42.2	42.2	84	37.7	0	2	292	0.00	29.952 
21:30	42.2	42.2	42.2	84	37.7	0	0	---	0.00	29.953 
21:35	42.2	42.2	42.2	84	37.7	0	2	292	0.00	29.953 
21:40	42.3	42.3	42.3	85	38.1	0	1	292	0.00	29.953 
21:45	42.3	42.3	42.3	85	38.1	0	2	292	0.00	29.955 
21:50	42.3	42.3	42.3	85	38.1	1	4	90	0.00	29.955 
21:55	42.3	42.3	42.3	86	38.4	0	3	90	0.00	29.955 
22:00	42.3	42.3	42.3	86	38.4	1	3	90	0.00	29.955 
22:05	42.3	42.3	42.3	87	38.7	0	2	90	0.00	29.955 
22:10	42.2	42.2	42.2	87	38.6	0	2	90	0.00	29.955 
22:15	42.2	42.2	42.2	87	38.6	1	3	90	0.00	29.952 
22:20	42.2	42.2	42.2	88	38.9	1	4	90	0.00	29.952 
22:25	42.2	42.2	42.2	88	38.9	1	2	90	0.00	29.952 
22:30	42.1	42.1	42.1	88	38.8	1	3	90	0.00	29.950 
22:35	42.1	42.1	42.1	88	38.8	1	2	90	0.00	29.950 
22:40	42.1	42.1	42.1	88	38.8	1	3	90	0.00	29.950 
22:45	42.1	42.1	42.1	88	38.8	1	3	90	0.00	29.940 
22:50	42.1	42.1	42.1	89	39.1	2	5	90	0.00	29.940 
22:55	42.1	42.1	42.1	89	39.1	1	3	90	0.00	29.940 
23:00	42.1	42.1	42.1	89	39.1	2	4	90	0.00	29.940 
23:05	42.1	42.1	42.1	89	39.1	2	4	90	0.00	29.940 
23:10	42.1	42.1	42.1	90	39.4	1	4	90	0.00	29.940 
23:15	42.1	42.1	42.1	90	39.4	1	3	90	0.00	29.938 
23:20	42.1	42.1	42.1	90	39.4	2	5	90	0.00	29.938 
23:25	42.1	42.1	42.1	90	39.4	1	4	90	0.00	29.938 
23:30	42.1	42.1	42.1	90	39.4	2	4	90	0.00	29.940 
23:35	42.1	42.1	42.1	90	39.4	1	3	90	0.00	29.940 
23:40	42.1	42.1	42.1	90	39.4	1	3	90	0.00	29.940 
23:45	42.1	42.1	42.1	91	39.7	1	3	90	0.00	29.940 
23:50	42.1	42.1	42.1	91	39.7	0	3	90	0.00	29.940 
23:55	42.1	42.1	42.1	91	39.7	0	2	90	0.00	29.940 

CoCoRaHS
IN-AL-39
A2 Web Hosting
Creative Commons License
GoDaddy
search engine by freefind advanced

loaded 2018-11-17 22:37:05 • last modified 2010-11-18 10:43:29
Privacy PolicyDisclaimer
• wx.awcolley.com is powered by PmWiki v.2002016 •
• all content (unless otherwise noted) © 2018 A W Colley